createdAt,value
2022-10-26T00:00:10.515Z,16.40
2022-10-26T00:01:10.531Z,10.90
2022-10-26T00:02:10.598Z,9.00
2022-10-26T00:03:10.494Z,13.00
2022-10-26T00:04:10.514Z,21.00
2022-10-26T00:05:10.479Z,17.80
2022-10-26T00:06:10.466Z,19.50
2022-10-26T00:07:10.453Z,15.40
2022-10-26T00:08:10.440Z,18.20
2022-10-26T00:09:10.492Z,17.80
2022-10-26T00:10:10.419Z,16.70
2022-10-26T00:11:11.418Z,19.90
2022-10-26T00:12:10.425Z,19.70
2022-10-26T00:13:10.424Z,17.30
2022-10-26T00:14:10.380Z,16.00
2022-10-26T00:15:10.419Z,20.00
2022-10-26T00:16:10.363Z,14.30
2022-10-26T00:17:10.337Z,17.10
2022-10-26T00:18:11.342Z,16.00
2022-10-26T00:19:10.326Z,11.70
2022-10-26T00:20:10.334Z,13.50
2022-10-26T00:21:10.313Z,9.60
2022-10-26T00:22:10.291Z,11.80
2022-10-26T00:23:10.290Z,12.10
2022-10-26T00:24:10.313Z,11.90
2022-10-26T00:25:10.295Z,12.30
2022-10-26T00:26:10.269Z,11.90
2022-10-26T00:27:10.260Z,9.20
2022-10-26T00:28:10.238Z,11.50
2022-10-26T00:29:10.261Z,9.80
2022-10-26T00:30:10.225Z,10.50
2022-10-26T00:31:10.202Z,9.00
2022-10-26T00:32:10.205Z,11.50
2022-10-26T00:33:10.193Z,15.90
2022-10-26T00:34:10.189Z,10.40
2022-10-26T00:35:21.322Z,12.80
2022-10-26T00:36:11.161Z,10.00
2022-10-26T00:37:10.173Z,15.50
2022-10-26T00:38:10.146Z,19.40
2022-10-26T00:39:10.163Z,11.20
2022-10-26T00:40:10.195Z,13.50
2022-10-26T00:41:10.119Z,12.30
2022-10-26T00:42:10.118Z,16.70
2022-10-26T00:43:10.098Z,17.50
2022-10-26T00:44:10.076Z,12.70
2022-10-26T00:45:10.133Z,14.70
2022-10-26T00:46:10.111Z,12.20
2022-10-26T00:47:10.071Z,11.10
2022-10-26T00:48:10.073Z,12.00
2022-10-26T00:49:10.065Z,10.80
2022-10-26T00:50:10.019Z,10.80
2022-10-26T00:51:10.023Z,19.30
2022-10-26T00:52:09.993Z,10.30
2022-10-26T00:53:10.006Z,11.70
2022-10-26T00:54:09.990Z,13.30
2022-10-26T00:55:09.963Z,11.60
2022-10-26T00:56:09.988Z,13.20
2022-10-26T00:57:09.944Z,14.60
2022-10-26T00:58:10.078Z,12.30
2022-10-26T00:59:09.927Z,11.30
2022-10-26T01:00:09.928Z,13.80
2022-10-26T01:01:09.997Z,12.10
2022-10-26T01:02:09.900Z,10.30
2022-10-26T01:03:09.915Z,9.00
2022-10-26T01:04:09.958Z,10.60
2022-10-26T01:05:09.859Z,11.00
2022-10-26T01:06:09.965Z,10.30
2022-10-26T01:07:09.877Z,8.90
2022-10-26T01:08:09.842Z,9.10
2022-10-26T01:09:09.912Z,11.20
2022-10-26T01:10:09.826Z,7.90
2022-10-26T01:11:09.868Z,8.10
2022-10-26T01:12:09.810Z,9.80
2022-10-26T01:13:09.794Z,8.00
2022-10-26T01:14:09.773Z,7.60
2022-10-26T01:15:09.768Z,8.30
2022-10-26T01:16:09.766Z,7.70
2022-10-26T01:17:09.779Z,6.70
2022-10-26T01:18:09.743Z,7.80
2022-10-26T01:19:09.731Z,7.50
2022-10-26T01:20:09.718Z,6.80
2022-10-26T01:21:09.714Z,7.90
2022-10-26T01:22:09.732Z,7.80
2022-10-26T01:23:09.686Z,7.00
2022-10-26T01:24:09.691Z,8.70
2022-10-26T01:25:09.672Z,10.60
2022-10-26T01:26:09.650Z,8.60
2022-10-26T01:27:09.644Z,7.70
2022-10-26T01:28:09.650Z,8.80
2022-10-26T01:29:09.632Z,7.70
2022-10-26T01:30:09.685Z,6.90
2022-10-26T01:31:09.607Z,7.10
2022-10-26T01:32:09.609Z,7.40
2022-10-26T01:33:09.620Z,6.30
2022-10-26T01:34:09.580Z,6.70
2022-10-26T01:35:09.577Z,6.50
2022-10-26T01:36:09.636Z,6.90
2022-10-26T01:37:09.559Z,6.00
2022-10-26T01:38:09.555Z,7.40
2022-10-26T01:39:09.570Z,8.60
2022-10-26T01:40:09.573Z,9.80
2022-10-26T01:41:09.532Z,9.10
2022-10-26T01:42:09.512Z,7.50
2022-10-26T01:43:09.519Z,7.10
2022-10-26T01:44:09.494Z,9.20
2022-10-26T01:45:09.492Z,9.00
2022-10-26T01:46:09.559Z,6.50
2022-10-26T01:47:09.488Z,15.40
2022-10-26T01:48:09.449Z,13.90
2022-10-26T01:49:09.481Z,8.20
2022-10-26T01:50:09.477Z,19.50
2022-10-26T01:51:09.438Z,12.40
2022-10-26T01:52:09.440Z,17.10
2022-10-26T01:53:09.429Z,10.10
2022-10-26T01:54:09.402Z,11.50
2022-10-26T01:55:09.383Z,9.50
2022-10-26T01:56:09.391Z,12.00
2022-10-26T01:57:09.410Z,10.10
2022-10-26T01:58:09.383Z,8.80
2022-10-26T01:59:09.339Z,8.10
2022-10-26T02:00:09.344Z,8.50
2022-10-26T02:01:09.369Z,7.90
2022-10-26T02:02:09.319Z,6.50
2022-10-26T02:03:09.311Z,6.30
2022-10-26T02:04:09.296Z,8.20
2022-10-26T02:05:09.283Z,7.60
2022-10-26T02:06:09.272Z,6.60
2022-10-26T02:07:09.285Z,9.40
2022-10-26T02:08:09.275Z,9.70
2022-10-26T02:09:09.265Z,7.40
2022-10-26T02:10:09.235Z,7.50
2022-10-26T02:11:09.219Z,14.80
2022-10-26T02:12:09.212Z,8.10
2022-10-26T02:13:09.225Z,8.30
2022-10-26T02:14:09.240Z,7.70
2022-10-26T02:15:09.180Z,8.80
2022-10-26T02:16:09.211Z,7.70
2022-10-26T02:17:09.161Z,6.80
2022-10-26T02:18:09.168Z,7.60
2022-10-26T02:19:09.140Z,13.10
2022-10-26T02:20:09.157Z,9.10
2022-10-26T02:21:09.122Z,9.50
2022-10-26T02:22:09.108Z,19.90
2022-10-26T02:23:09.121Z,7.40
2022-10-26T02:24:09.121Z,9.70
2022-10-26T02:25:09.083Z,16.30
2022-10-26T02:26:09.095Z,9.50
2022-10-26T02:27:09.060Z,9.70
2022-10-26T02:28:09.072Z,8.20
2022-10-26T02:29:09.043Z,7.00
2022-10-26T02:30:09.048Z,10.00
2022-10-26T02:31:09.046Z,7.10
2022-10-26T02:32:09.025Z,7.20
2022-10-26T02:33:09.009Z,6.40
2022-10-26T02:34:09.009Z,7.60
2022-10-26T02:35:08.989Z,6.60
2022-10-26T02:36:08.986Z,7.70
2022-10-26T02:37:08.968Z,9.50
2022-10-26T02:38:08.950Z,8.60
2022-10-26T02:39:08.954Z,6.00
2022-10-26T02:40:08.928Z,8.10
2022-10-26T02:41:08.940Z,13.10
2022-10-26T02:42:08.967Z,8.20
2022-10-26T02:43:08.937Z,11.80
2022-10-26T02:44:09.894Z,7.60
2022-10-26T02:45:08.916Z,8.40
2022-10-26T02:46:08.875Z,8.90
2022-10-26T02:47:08.922Z,6.80
2022-10-26T02:48:08.850Z,6.10
2022-10-26T02:49:08.851Z,9.00
2022-10-26T02:50:08.826Z,7.70
2022-10-26T02:51:08.817Z,7.90
2022-10-26T02:52:08.829Z,6.40
2022-10-26T02:53:08.786Z,5.70
2022-10-26T02:54:08.792Z,7.00
2022-10-26T02:55:08.796Z,7.10
2022-10-26T02:56:08.774Z,6.30
2022-10-26T02:57:40.687Z,8.50
2022-10-26T02:58:08.747Z,5.70
2022-10-26T02:59:08.752Z,8.80
2022-10-26T03:00:08.743Z,8.20
2022-10-26T03:01:08.766Z,6.60
2022-10-26T03:02:08.757Z,7.50
2022-10-26T03:03:08.717Z,9.00
2022-10-26T03:04:08.787Z,8.10
2022-10-26T03:05:08.712Z,7.10
2022-10-26T03:06:08.689Z,8.10
2022-10-26T03:07:08.690Z,10.70
2022-10-26T03:08:08.675Z,10.50
2022-10-26T03:09:08.681Z,11.70
2022-10-26T03:10:08.646Z,9.30
2022-10-26T03:11:08.662Z,9.60
2022-10-26T03:12:08.659Z,7.00
2022-10-26T03:13:08.622Z,9.40
2022-10-26T03:14:08.640Z,12.40
2022-10-26T03:15:08.593Z,12.30
2022-10-26T03:16:08.661Z,18.90
2022-10-26T03:17:09.569Z,10.10
2022-10-26T03:18:08.567Z,11.60
2022-10-26T03:19:08.549Z,11.10
2022-10-26T03:20:08.651Z,10.90
2022-10-26T03:21:08.544Z,11.40
2022-10-26T03:22:08.531Z,12.40
2022-10-26T03:23:08.530Z,9.70
2022-10-26T03:24:08.507Z,8.10
2022-10-26T03:26:08.498Z,7.20
2022-10-26T03:27:08.486Z,7.30
2022-10-26T03:28:08.490Z,17.70
2022-10-26T03:29:08.472Z,8.40
2022-10-26T03:30:08.446Z,14.90
2022-10-26T03:31:08.452Z,11.10
2022-10-26T03:32:08.420Z,8.70
2022-10-26T03:33:08.434Z,9.30
2022-10-26T03:34:08.419Z,8.90
2022-10-26T03:35:08.416Z,9.40
2022-10-26T03:36:08.434Z,10.40
2022-10-26T03:37:08.402Z,10.30
2022-10-26T03:38:08.369Z,9.90
2022-10-26T03:39:08.372Z,9.20
2022-10-26T03:40:08.357Z,10.50
2022-10-26T03:41:08.397Z,9.30
2022-10-26T03:42:08.340Z,10.90
2022-10-26T03:43:08.330Z,8.20
2022-10-26T03:44:08.319Z,9.90
2022-10-26T03:45:08.320Z,7.80
2022-10-26T03:46:09.320Z,8.30
2022-10-26T03:47:08.282Z,8.00
2022-10-26T03:48:08.284Z,6.10
2022-10-26T03:49:08.272Z,7.40
2022-10-26T03:50:08.358Z,7.70
2022-10-26T03:51:08.274Z,6.00
2022-10-26T03:52:08.298Z,6.00
2022-10-26T03:53:08.293Z,5.50
2022-10-26T03:54:08.223Z,5.60
2022-10-26T03:55:08.225Z,7.00
2022-10-26T03:56:08.215Z,7.40
2022-10-26T03:57:08.183Z,6.40
2022-10-26T03:58:08.174Z,7.50
2022-10-26T03:59:08.162Z,6.80
2022-10-26T04:00:08.174Z,7.00
2022-10-26T04:01:08.186Z,7.20
2022-10-26T04:02:08.132Z,6.40
2022-10-26T04:03:08.175Z,6.40
2022-10-26T04:04:08.236Z,6.80
2022-10-26T04:05:08.214Z,6.40
2022-10-26T04:06:08.097Z,6.70
2022-10-26T04:07:09.111Z,6.80
2022-10-26T04:08:09.086Z,7.10
2022-10-26T04:09:08.099Z,7.90
2022-10-26T04:10:08.048Z,7.10
2022-10-26T04:11:08.055Z,7.20
2022-10-26T04:12:08.043Z,6.60
2022-10-26T04:13:08.037Z,7.40
2022-10-26T04:14:08.029Z,6.30
2022-10-26T04:15:08.181Z,10.00
2022-10-26T04:16:08.007Z,6.60
2022-10-26T04:17:07.990Z,6.00
2022-10-26T04:18:07.980Z,6.00
2022-10-26T04:19:07.974Z,6.30
2022-10-26T04:20:07.980Z,5.90
2022-10-26T04:21:07.974Z,6.20
2022-10-26T04:22:07.958Z,6.60
2022-10-26T04:23:07.937Z,5.40
2022-10-26T04:24:07.910Z,5.50
2022-10-26T04:25:08.931Z,5.90
2022-10-26T04:26:07.909Z,6.40
2022-10-26T04:27:07.902Z,6.00
2022-10-26T04:28:07.925Z,6.10
2022-10-26T04:29:07.925Z,6.90
2022-10-26T04:30:07.878Z,5.60
2022-10-26T04:31:07.926Z,5.60
2022-10-26T04:32:07.839Z,5.60
2022-10-26T04:33:07.874Z,5.40
2022-10-26T04:34:07.817Z,5.10
2022-10-26T04:35:09.978Z,5.30
2022-10-26T04:36:07.811Z,5.00
2022-10-26T04:37:07.802Z,5.20
2022-10-26T04:38:07.781Z,5.40
2022-10-26T04:39:07.762Z,5.20
2022-10-26T04:40:07.800Z,5.10
2022-10-26T04:41:07.758Z,5.50
2022-10-26T04:42:07.743Z,5.50
2022-10-26T04:43:07.745Z,6.20
2022-10-26T04:44:07.737Z,6.30
2022-10-26T04:45:07.780Z,5.80
2022-10-26T04:46:07.708Z,6.10
2022-10-26T04:47:07.710Z,6.40
2022-10-26T04:48:07.672Z,6.00
2022-10-26T04:49:07.676Z,6.00
2022-10-26T04:50:07.673Z,6.40
2022-10-26T04:51:07.649Z,6.20
2022-10-26T04:52:07.648Z,5.70
2022-10-26T04:53:07.629Z,5.70
2022-10-26T04:54:07.640Z,5.80
2022-10-26T04:55:07.616Z,7.00
2022-10-26T04:56:07.612Z,6.50
2022-10-26T04:57:07.611Z,6.70
2022-10-26T04:58:07.579Z,6.20
2022-10-26T04:59:07.572Z,6.20
2022-10-26T05:00:07.579Z,6.10
2022-10-26T05:01:07.623Z,6.50
2022-10-26T05:02:07.688Z,6.30
2022-10-26T05:03:07.545Z,5.90
2022-10-26T05:04:07.514Z,6.10
2022-10-26T05:05:09.960Z,5.90
2022-10-26T05:06:07.520Z,6.40
2022-10-26T05:07:07.519Z,6.00
2022-10-26T05:08:07.490Z,6.50
2022-10-26T05:09:07.492Z,5.80
2022-10-26T05:10:07.496Z,6.20
2022-10-26T05:11:07.491Z,6.20
2022-10-26T05:12:07.445Z,6.30
2022-10-26T05:13:07.437Z,6.40
2022-10-26T05:14:08.439Z,6.90
2022-10-26T05:15:08.649Z,6.50
2022-10-26T05:16:07.499Z,6.80
2022-10-26T05:17:07.387Z,6.20
2022-10-26T05:18:07.397Z,6.50
2022-10-26T05:19:07.397Z,6.30
2022-10-26T05:20:07.372Z,6.20
2022-10-26T05:21:07.368Z,6.40
2022-10-26T05:22:07.376Z,6.50
2022-10-26T05:23:07.404Z,6.70
2022-10-26T05:24:10.138Z,6.50
2022-10-26T05:25:07.341Z,6.40
2022-10-26T05:26:07.330Z,6.30
2022-10-26T05:27:07.335Z,6.40
2022-10-26T05:28:07.303Z,5.80
2022-10-26T05:29:07.338Z,6.00
2022-10-26T05:31:07.282Z,5.80
2022-10-26T05:32:07.275Z,6.30
2022-10-26T05:33:07.254Z,6.10
2022-10-26T05:34:07.246Z,5.90
2022-10-26T05:35:07.231Z,5.70
2022-10-26T05:36:07.338Z,5.90
2022-10-26T05:37:07.215Z,5.70
2022-10-26T05:38:07.214Z,5.10
2022-10-26T05:39:07.206Z,5.40
2022-10-26T05:40:07.198Z,5.30
2022-10-26T05:41:07.200Z,5.30
2022-10-26T05:42:07.187Z,5.70
2022-10-26T05:43:07.163Z,6.00
2022-10-26T05:44:07.153Z,6.30
2022-10-26T05:45:07.290Z,5.90
2022-10-26T05:46:07.158Z,5.80
2022-10-26T05:47:07.138Z,5.90
2022-10-26T05:48:07.101Z,5.90
2022-10-26T05:49:07.097Z,6.10
2022-10-26T05:50:07.207Z,5.90
2022-10-26T05:51:07.098Z,5.50
2022-10-26T05:52:07.062Z,5.70
2022-10-26T05:53:07.051Z,5.70
2022-10-26T05:54:10.283Z,5.30
2022-10-26T05:56:08.622Z,5.20
2022-10-26T05:57:07.016Z,5.20
2022-10-26T05:58:07.042Z,5.10
2022-10-26T05:59:07.013Z,5.40
2022-10-26T06:00:06.984Z,5.90
2022-10-26T06:01:07.015Z,5.60
2022-10-26T06:02:07.084Z,6.00
2022-10-26T06:03:06.972Z,8.40
2022-10-26T06:04:06.949Z,8.60
2022-10-26T06:05:06.940Z,10.40
2022-10-26T06:06:07.406Z,8.50
2022-10-26T06:07:06.933Z,7.20
2022-10-26T06:08:06.905Z,6.40
2022-10-26T06:09:07.048Z,5.90
2022-10-26T06:10:07.123Z,6.90
2022-10-26T06:11:06.892Z,5.60
2022-10-26T06:12:06.879Z,5.80
2022-10-26T06:13:06.863Z,5.90
2022-10-26T06:14:06.869Z,5.80
2022-10-26T06:15:06.837Z,5.50
2022-10-26T06:16:06.833Z,6.10
2022-10-26T06:17:06.815Z,6.50
2022-10-26T06:18:06.800Z,5.70
2022-10-26T06:19:06.808Z,6.40
2022-10-26T06:20:07.964Z,5.80
2022-10-26T06:21:06.774Z,5.80
2022-10-26T06:22:06.757Z,6.00
2022-10-26T06:23:06.755Z,6.00
2022-10-26T06:24:06.765Z,5.10
2022-10-26T06:25:06.728Z,5.90
2022-10-26T06:26:06.725Z,4.60
2022-10-26T06:27:06.730Z,4.40
2022-10-26T06:28:06.731Z,4.90
2022-10-26T06:29:06.717Z,5.70
2022-10-26T06:30:06.725Z,6.40
2022-10-26T06:31:06.680Z,6.10
2022-10-26T06:32:06.655Z,5.70
2022-10-26T06:33:18.263Z,5.20
2022-10-26T06:34:06.646Z,6.10
2022-10-26T06:35:07.313Z,5.10
2022-10-26T06:36:07.638Z,4.60
2022-10-26T06:37:06.616Z,4.80
2022-10-26T06:38:06.609Z,5.10
2022-10-26T06:39:06.603Z,5.20
2022-10-26T06:40:06.593Z,5.10
2022-10-26T06:41:06.650Z,5.00
2022-10-26T06:42:06.566Z,4.70
2022-10-26T06:43:06.552Z,5.70
2022-10-26T06:44:06.568Z,5.30
2022-10-26T06:45:06.558Z,4.60
2022-10-26T06:46:06.551Z,5.80
2022-10-26T06:47:06.515Z,4.70
2022-10-26T06:48:06.508Z,4.80
2022-10-26T06:49:06.493Z,4.80
2022-10-26T06:50:06.483Z,5.10
2022-10-26T06:51:06.727Z,4.70
2022-10-26T06:52:09.071Z,4.60
2022-10-26T06:53:06.453Z,5.10
2022-10-26T06:54:06.440Z,5.10
2022-10-26T06:55:06.465Z,4.40
2022-10-26T06:56:06.447Z,4.40
2022-10-26T06:57:06.432Z,5.10
2022-10-26T06:58:06.407Z,4.70
2022-10-26T06:59:07.126Z,5.10
2022-10-26T07:00:06.392Z,4.60
2022-10-26T07:01:06.470Z,5.20
2022-10-26T07:02:06.780Z,5.20
2022-10-26T07:03:06.445Z,5.00
2022-10-26T07:04:06.353Z,4.90
2022-10-26T07:05:06.360Z,5.80
2022-10-26T07:06:06.439Z,5.60
2022-10-26T07:07:06.306Z,5.10
2022-10-26T07:08:06.341Z,5.30
2022-10-26T07:09:06.294Z,5.00
2022-10-26T07:10:06.302Z,4.50
2022-10-26T07:11:06.312Z,5.20
2022-10-26T07:12:06.285Z,5.00
2022-10-26T07:13:06.276Z,4.90
2022-10-26T07:14:06.258Z,5.10
2022-10-26T07:15:06.334Z,5.70
2022-10-26T07:16:06.234Z,4.80
2022-10-26T07:17:06.268Z,4.70
2022-10-26T07:18:06.233Z,6.20
2022-10-26T07:19:06.211Z,5.50
2022-10-26T07:20:06.186Z,5.30
2022-10-26T07:21:06.180Z,4.80
2022-10-26T07:22:06.178Z,4.60
2022-10-26T07:23:06.184Z,4.90
2022-10-26T07:24:06.144Z,5.10
2022-10-26T07:25:06.159Z,5.60
2022-10-26T07:26:06.132Z,5.50
2022-10-26T07:27:06.117Z,5.40
2022-10-26T07:28:06.118Z,4.90
2022-10-26T07:29:06.132Z,5.70
2022-10-26T07:30:06.093Z,5.30
2022-10-26T07:31:06.155Z,5.50
2022-10-26T07:32:06.142Z,4.90
2022-10-26T07:33:06.108Z,5.40
2022-10-26T07:34:06.048Z,5.30
2022-10-26T07:35:06.032Z,4.80
2022-10-26T07:36:06.037Z,5.70
2022-10-26T07:37:06.046Z,5.20
2022-10-26T07:38:06.029Z,5.80
2022-10-26T07:39:06.011Z,5.00
2022-10-26T07:40:06.948Z,5.60
2022-10-26T07:41:05.989Z,4.70
2022-10-26T07:42:06.006Z,4.70
2022-10-26T07:43:06.051Z,5.50
2022-10-26T07:44:05.970Z,4.70
2022-10-26T07:45:05.980Z,5.00
2022-10-26T07:46:06.000Z,5.20
2022-10-26T07:47:05.930Z,5.30
2022-10-26T07:48:05.932Z,5.60
2022-10-26T07:49:05.929Z,4.90
2022-10-26T07:50:05.900Z,5.30
2022-10-26T07:51:05.881Z,4.80
2022-10-26T07:52:05.894Z,4.90
2022-10-26T07:53:05.972Z,5.10
2022-10-26T07:54:05.860Z,5.40
2022-10-26T07:55:05.849Z,5.20
2022-10-26T07:56:05.843Z,5.10
2022-10-26T07:58:05.888Z,5.20
2022-10-26T07:59:05.834Z,5.20
2022-10-26T08:00:05.818Z,5.50
2022-10-26T08:01:05.841Z,5.50
2022-10-26T08:02:05.838Z,4.80
2022-10-26T08:03:05.786Z,5.70
2022-10-26T08:04:05.776Z,5.80
2022-10-26T08:05:05.889Z,5.50
2022-10-26T08:06:05.743Z,5.90
2022-10-26T08:07:05.728Z,5.50
2022-10-26T08:08:05.815Z,5.10
2022-10-26T08:09:05.715Z,4.90
2022-10-26T08:10:05.704Z,5.20
2022-10-26T08:11:05.687Z,5.30
2022-10-26T08:12:05.696Z,5.00
2022-10-26T08:13:05.675Z,5.40
2022-10-26T08:14:05.706Z,5.10
2022-10-26T08:15:05.652Z,5.60
2022-10-26T08:16:05.630Z,5.40
2022-10-26T08:17:05.691Z,5.80
2022-10-26T08:18:05.608Z,5.90
2022-10-26T08:19:05.631Z,6.20
2022-10-26T08:20:05.595Z,6.20
2022-10-26T08:21:11.002Z,7.20
2022-10-26T08:22:06.623Z,6.20
2022-10-26T08:23:05.567Z,6.90
2022-10-26T08:24:05.561Z,7.10
2022-10-26T08:25:05.595Z,6.20
2022-10-26T08:26:05.575Z,6.90
2022-10-26T08:27:05.589Z,6.60
2022-10-26T08:28:05.508Z,7.20
2022-10-26T08:29:05.508Z,6.50
2022-10-26T08:30:05.497Z,6.50
2022-10-26T08:31:05.490Z,7.30
2022-10-26T08:32:05.543Z,6.50
2022-10-26T08:33:05.476Z,6.40
2022-10-26T08:34:05.459Z,6.00
2022-10-26T08:35:05.468Z,7.20
2022-10-26T08:36:05.457Z,6.60
2022-10-26T08:37:05.440Z,6.90
2022-10-26T08:38:05.426Z,7.40
2022-10-26T08:39:05.398Z,6.70
2022-10-26T08:40:05.398Z,7.00
2022-10-26T08:41:05.383Z,7.90
2022-10-26T08:42:05.393Z,7.30
2022-10-26T08:43:05.377Z,7.10
2022-10-26T08:44:05.348Z,7.20
2022-10-26T08:45:05.345Z,5.80
2022-10-26T08:46:05.334Z,5.90
2022-10-26T08:47:05.375Z,6.30
2022-10-26T08:48:05.318Z,6.60
2022-10-26T08:49:05.368Z,7.30
2022-10-26T08:50:05.285Z,8.60
2022-10-26T08:51:05.296Z,10.90
2022-10-26T08:52:05.291Z,8.80
2022-10-26T08:53:05.268Z,8.40
2022-10-26T08:54:05.259Z,8.30
2022-10-26T08:55:05.285Z,7.10
2022-10-26T08:56:05.272Z,6.30
2022-10-26T08:57:05.221Z,6.60
2022-10-26T08:58:37.144Z,6.30
2022-10-26T08:59:05.225Z,6.70
2022-10-26T09:00:05.194Z,7.60
2022-10-26T09:01:05.275Z,7.20
2022-10-26T09:02:05.287Z,6.50
2022-10-26T09:03:05.160Z,8.00
2022-10-26T09:04:05.174Z,7.80
2022-10-26T09:05:05.164Z,7.60
2022-10-26T09:06:05.130Z,7.60
2022-10-26T09:07:05.124Z,7.50
2022-10-26T09:08:05.133Z,7.40
2022-10-26T09:09:05.138Z,7.60
2022-10-26T09:10:05.117Z,7.20
2022-10-26T09:11:05.109Z,7.10
2022-10-26T09:12:05.071Z,6.80
2022-10-26T09:13:05.079Z,7.50
2022-10-26T09:14:05.052Z,7.50
2022-10-26T09:15:05.052Z,8.30
2022-10-26T09:16:05.051Z,8.20
2022-10-26T09:17:05.040Z,8.00
2022-10-26T09:18:05.013Z,7.50
2022-10-26T09:19:05.020Z,8.00
2022-10-26T09:20:05.017Z,8.10
2022-10-26T09:21:05.022Z,8.20
2022-10-26T09:22:04.992Z,8.20
2022-10-26T09:23:04.981Z,8.40
2022-10-26T09:24:04.966Z,8.00
2022-10-26T09:25:07.652Z,7.40
2022-10-26T09:26:04.940Z,7.60
2022-10-26T09:28:04.921Z,8.60
2022-10-26T09:29:04.972Z,7.70
2022-10-26T09:30:04.911Z,7.40
2022-10-26T09:31:04.891Z,7.50
2022-10-26T09:32:04.900Z,7.50
2022-10-26T09:33:07.416Z,7.40
2022-10-26T09:34:04.883Z,7.10
2022-10-26T09:35:04.852Z,8.10
2022-10-26T09:36:04.831Z,8.00
2022-10-26T09:37:04.817Z,7.50
2022-10-26T09:38:04.820Z,7.50
2022-10-26T09:39:04.827Z,8.20
2022-10-26T09:40:04.796Z,8.40
2022-10-26T09:41:04.784Z,8.40
2022-10-26T09:42:04.790Z,8.00
2022-10-26T09:43:04.769Z,8.10
2022-10-26T09:44:04.775Z,7.90
2022-10-26T09:45:04.757Z,8.30
2022-10-26T09:46:04.733Z,8.90
2022-10-26T09:47:04.744Z,8.20
2022-10-26T09:48:06.660Z,8.00
2022-10-26T09:49:04.730Z,7.40
2022-10-26T09:50:04.791Z,8.00
2022-10-26T09:51:05.055Z,7.70
2022-10-26T09:52:04.737Z,7.40
2022-10-26T09:53:04.686Z,7.40
2022-10-26T09:54:04.658Z,7.60
2022-10-26T09:55:04.648Z,7.80
2022-10-26T09:56:04.650Z,7.80
2022-10-26T09:57:04.634Z,7.30
2022-10-26T09:58:04.644Z,7.60
2022-10-26T09:59:04.610Z,7.20
2022-10-26T10:00:04.622Z,7.00
2022-10-26T10:01:04.633Z,7.10
2022-10-26T10:02:04.600Z,7.60
2022-10-26T10:03:04.628Z,6.70
2022-10-26T10:04:04.574Z,7.50
2022-10-26T10:05:04.601Z,7.30
2022-10-26T10:06:04.567Z,7.20
2022-10-26T10:07:04.548Z,7.70
2022-10-26T10:08:04.534Z,7.50
2022-10-26T10:09:04.512Z,7.60
2022-10-26T10:10:04.527Z,6.40
2022-10-26T10:11:04.501Z,7.40
2022-10-26T10:12:04.532Z,7.00
2022-10-26T10:13:04.485Z,6.80
2022-10-26T10:14:04.465Z,7.80
2022-10-26T10:15:04.550Z,7.30
2022-10-26T10:16:04.458Z,7.50
2022-10-26T10:17:04.546Z,7.20
2022-10-26T10:18:04.433Z,7.30
2022-10-26T10:19:04.408Z,7.40
2022-10-26T10:20:04.432Z,7.10
2022-10-26T10:21:04.401Z,7.60
2022-10-26T10:22:04.472Z,8.20
2022-10-26T10:23:04.377Z,7.90
2022-10-26T10:24:04.367Z,7.40
2022-10-26T10:25:04.361Z,7.50
2022-10-26T10:26:04.342Z,8.00
2022-10-26T10:27:04.394Z,6.60
2022-10-26T10:28:04.379Z,7.30
2022-10-26T10:29:04.303Z,7.40
2022-10-26T10:30:04.507Z,7.20
2022-10-26T10:31:04.331Z,7.20
2022-10-26T10:32:04.294Z,7.10
2022-10-26T10:33:04.296Z,6.60
2022-10-26T10:34:04.297Z,7.00
2022-10-26T10:35:04.316Z,7.60
2022-10-26T10:36:04.260Z,7.30
2022-10-26T10:37:04.234Z,7.90
2022-10-26T10:38:04.242Z,7.10
2022-10-26T10:39:04.217Z,6.40
2022-10-26T10:40:04.222Z,6.30
2022-10-26T10:41:04.217Z,6.30
2022-10-26T10:42:04.200Z,6.20
2022-10-26T10:43:04.206Z,6.40
2022-10-26T10:44:04.194Z,6.30
2022-10-26T10:45:04.156Z,6.60
2022-10-26T10:46:04.186Z,6.80
2022-10-26T10:47:04.137Z,6.60
2022-10-26T10:48:04.214Z,5.60
2022-10-26T10:49:04.122Z,5.90
2022-10-26T10:50:04.105Z,5.30
2022-10-26T10:51:04.089Z,6.30
2022-10-26T10:52:04.084Z,5.30
2022-10-26T10:53:04.083Z,5.70
2022-10-26T10:54:04.071Z,5.50
2022-10-26T10:55:04.048Z,5.70
2022-10-26T10:56:05.441Z,5.40
2022-10-26T10:57:04.060Z,5.10
2022-10-26T10:58:04.023Z,5.10
2022-10-26T10:59:04.164Z,4.80
2022-10-26T11:00:04.015Z,4.50
2022-10-26T11:01:04.033Z,5.50
2022-10-26T11:02:04.149Z,5.30
2022-10-26T11:03:03.972Z,5.00
2022-10-26T11:04:04.061Z,5.10
2022-10-26T11:05:03.948Z,5.40
2022-10-26T11:06:03.967Z,4.90
2022-10-26T11:07:03.924Z,5.10
2022-10-26T11:08:03.925Z,4.90
2022-10-26T11:09:03.901Z,4.60
2022-10-26T11:10:03.905Z,4.80
2022-10-26T11:11:03.936Z,4.50
2022-10-26T11:12:03.882Z,4.60
2022-10-26T11:13:03.907Z,4.40
2022-10-26T11:14:03.865Z,4.30
2022-10-26T11:15:03.902Z,4.20
2022-10-26T11:16:03.841Z,4.40
2022-10-26T11:17:03.886Z,4.30
2022-10-26T11:18:03.818Z,3.90
2022-10-26T11:19:03.819Z,4.00
2022-10-26T11:20:03.797Z,3.90
2022-10-26T11:21:03.798Z,3.30
2022-10-26T11:22:03.825Z,3.30
2022-10-26T11:24:03.764Z,3.10
2022-10-26T11:25:03.753Z,3.20
2022-10-26T11:26:03.737Z,2.90
2022-10-26T11:27:03.734Z,3.00
2022-10-26T11:28:03.727Z,3.20
2022-10-26T11:29:03.793Z,3.00
2022-10-26T11:30:03.688Z,3.60
2022-10-26T11:31:03.766Z,3.20
2022-10-26T11:32:03.693Z,3.50
2022-10-26T11:33:03.683Z,3.30
2022-10-26T11:34:03.655Z,3.00
2022-10-26T11:35:03.648Z,3.60
2022-10-26T11:36:03.666Z,3.30
2022-10-26T11:37:03.637Z,3.70
2022-10-26T11:38:03.616Z,3.50
2022-10-26T11:39:06.396Z,3.10
2022-10-26T11:40:04.653Z,3.30
2022-10-26T11:41:03.604Z,3.40
2022-10-26T11:42:03.581Z,3.10
2022-10-26T11:43:03.565Z,2.90
2022-10-26T11:44:03.546Z,2.90
2022-10-26T11:45:03.528Z,2.90
2022-10-26T11:46:03.529Z,3.20
2022-10-26T11:47:03.536Z,3.20
2022-10-26T11:48:03.500Z,3.00
2022-10-26T11:49:03.487Z,3.30
2022-10-26T11:50:03.510Z,3.10
2022-10-26T11:51:03.487Z,3.00
2022-10-26T11:52:03.530Z,2.70
2022-10-26T11:53:03.453Z,2.80
2022-10-26T11:54:03.444Z,3.10
2022-10-26T11:55:03.431Z,2.80
2022-10-26T11:56:03.429Z,2.90
2022-10-26T11:57:03.434Z,2.70
2022-10-26T11:58:03.416Z,2.80
2022-10-26T11:59:03.411Z,2.70
2022-10-26T12:00:03.385Z,2.70
2022-10-26T12:01:03.387Z,2.40
2022-10-26T12:02:03.390Z,2.40
2022-10-26T12:03:03.389Z,2.40
2022-10-26T12:04:03.342Z,2.20
2022-10-26T12:05:03.331Z,2.30
2022-10-26T12:06:03.316Z,2.10
2022-10-26T12:07:03.355Z,2.20
2022-10-26T12:08:03.316Z,2.80
2022-10-26T12:09:03.292Z,2.50
2022-10-26T12:10:03.392Z,2.60
2022-10-26T12:11:03.309Z,2.20
2022-10-26T12:12:03.261Z,2.00
2022-10-26T12:13:03.266Z,2.40
2022-10-26T12:14:03.235Z,2.30
2022-10-26T12:15:03.239Z,2.50
2022-10-26T12:16:04.325Z,2.70
2022-10-26T12:17:04.275Z,2.50
2022-10-26T12:18:03.192Z,2.10
2022-10-26T12:19:03.204Z,2.50
2022-10-26T12:20:03.263Z,2.30
2022-10-26T12:21:03.185Z,2.20
2022-10-26T12:22:03.157Z,1.90
2022-10-26T12:23:03.144Z,2.20
2022-10-26T12:24:03.144Z,2.50
2022-10-26T12:25:03.179Z,2.10
2022-10-26T12:26:03.189Z,2.00
2022-10-26T12:27:03.106Z,2.00
2022-10-26T12:28:03.105Z,2.30
2022-10-26T12:29:03.109Z,1.80
2022-10-26T12:30:03.084Z,1.90
2022-10-26T12:31:03.069Z,1.80
2022-10-26T12:32:03.124Z,2.00
2022-10-26T12:33:03.046Z,1.80
2022-10-26T12:34:03.075Z,2.20
2022-10-26T12:35:03.045Z,2.10
2022-10-26T12:36:03.085Z,1.80
2022-10-26T12:37:03.038Z,2.30
2022-10-26T12:38:03.023Z,2.10
2022-10-26T12:39:03.080Z,1.80
2022-10-26T12:40:02.995Z,1.90
2022-10-26T12:41:03.054Z,1.80
2022-10-26T12:42:02.962Z,1.90
2022-10-26T12:43:02.954Z,2.20
2022-10-26T12:44:04.874Z,2.30
2022-10-26T12:45:02.940Z,2.40
2022-10-26T12:46:02.937Z,2.00
2022-10-26T12:47:02.937Z,2.10
2022-10-26T12:48:10.674Z,2.20
2022-10-26T12:49:04.944Z,2.10
2022-10-26T12:50:02.955Z,1.90
2022-10-26T12:51:02.874Z,1.90
2022-10-26T12:53:05.010Z,2.10
2022-10-26T12:54:02.844Z,2.10
2022-10-26T12:55:02.926Z,1.90
2022-10-26T12:56:02.833Z,1.80
2022-10-26T12:57:02.819Z,1.60
2022-10-26T12:58:02.827Z,1.80
2022-10-26T12:59:04.870Z,2.00
2022-10-26T13:00:03.777Z,2.00
2022-10-26T13:01:02.803Z,1.80
2022-10-26T13:02:02.758Z,2.20
2022-10-26T13:03:02.752Z,2.10
2022-10-26T13:04:02.741Z,2.10
2022-10-26T13:05:05.976Z,1.70
2022-10-26T13:06:02.803Z,2.20
2022-10-26T13:07:02.708Z,2.20
2022-10-26T13:08:02.717Z,2.30
2022-10-26T13:09:03.245Z,1.60
2022-10-26T13:10:02.699Z,2.50
2022-10-26T13:11:02.830Z,2.20
2022-10-26T13:12:02.736Z,2.00
2022-10-26T13:13:02.654Z,1.80
2022-10-26T13:14:02.684Z,1.90
2022-10-26T13:15:02.671Z,2.80
2022-10-26T13:16:02.645Z,1.90
2022-10-26T13:17:02.809Z,1.40
2022-10-26T13:18:02.601Z,1.70
2022-10-26T13:19:02.598Z,1.80
2022-10-26T13:20:02.598Z,2.40
2022-10-26T13:21:02.584Z,2.00
2022-10-26T13:22:02.567Z,5.30